This is the latest recevied weather packets stored in our database for station/object IZ3VCM. If no packets are shown the sender has not sent any weather packets the latest 10 day(s).
| Time | Temp. | Humidity | Pressure | Rain* | Wind** | Luminosity | Snow |
|---|---|---|---|---|---|---|---|
| 1778256006 | 22.78° C | 58% | 1013.9 hPa | 0 mm | - | - | - |
| 1778255104 | 23.33° C | 57% | 1013.8 hPa | 0 mm | - | - | - |
| 1778254206 | 23.33° C | 55% | 1013.9 hPa | 0 mm | - | - | - |
| 1778253304 | 23.89° C | 57% | 1013.8 hPa | 0 mm | - | - | - |
| 1778252406 | 23.33° C | 56% | 1013.9 hPa | 0 mm | - | - | - |
| 1778251503 | 23.33° C | 57% | 1013.9 hPa | 0 mm | - | - | - |
| 1778250606 | 23.89° C | 56% | 1014.1 hPa | 0 mm | - | - | - |
| 1778249703 | 23.89° C | 56% | 1014.1 hPa | 0 mm | - | - | - |
| 1778248807 | 24.44° C | 56% | 1014.2 hPa | 0 mm | - | - | - |
| 1778247905 | 24.44° C | 57% | 1014.3 hPa | 0 mm | - | - | - |
| 1778247007 | 24.44° C | 57% | 1014.5 hPa | 0 mm | - | - | - |
| 1778246104 | 23.89° C | 57% | 1014.7 hPa | 0 mm | - | - | - |
| 1778245206 | 24.44° C | 57% | 1014.5 hPa | 0 mm | - | - | - |
| 1778244305 | 24.44° C | 58% | 1014.7 hPa | 0 mm | - | - | - |
| 1778243407 | 24.44° C | 58% | 1014.7 hPa | 0 mm | - | - | - |
| 1778242504 | 24.44° C | 60% | 1014.8 hPa | 0 mm | - | - | - |
| 1778241606 | 24.44° C | 58% | 1014.8 hPa | 0 mm | - | - | - |
| 1778240705 | 25° C | 59% | 1014.8 hPa | 0 mm | - | - | - |
| 1778239806 | 24.44° C | 58% | 1015 hPa | 0 mm | - | - | - |
| 1778238904 | 25.56° C | 59% | 1015 hPa | 0 mm | - | - | - |
| 1778238007 | 25° C | 60% | 1015.1 hPa | 0 mm | - | - | - |
| 1778237104 | 24.44° C | 60% | 1015.3 hPa | 0 mm | - | - | - |
| 1778236206 | 24.44° C | 62% | 1015.4 hPa | 0 mm | - | - | - |
| 1778235304 | 23.89° C | 62% | 1015.5 hPa | 0 mm | - | - | - |
| 1778234405 | 23.89° C | 63% | 1015.5 hPa | 0 mm | - | - | - |
* Rain latest hour (hover to see other rain measurements)
** Current wind speed in m/s (hover to see current wind gust speed)